| time (UTC) | temp C | wind direction | speed KPH | gust KPH | rain 1hr cm | rain 24hr cm | rain mn cm | humidity % | barometer mb |
| 20260507022020 | 12 | 187 | 0.0 | 3.2 | 0.00 | 0.00 | 0.00 | 84 | 1015.2 |
| 20260507020525 | 12 | 187 | 3.2 | 6.4 | 0.00 | 0.00 | 0.00 | 84 | 1015.2 |
| 20260507015018 | 12 | 192 | 3.2 | 6.4 | 0.00 | 0.00 | 0.00 | 84 | 1015.1 |
| 20260507013517 | 12 | 179 | 3.2 | 8.0 | 0.00 | 0.00 | 0.00 | 83 | 1015.1 |
| 20260507012021 | 12 | 225 | 3.2 | 8.0 | 0.00 | 0.00 | 0.00 | 83 | 1015.1 |
| 20260507010447 | 13 | 181 | 3.2 | 9.7 | 0.00 | 0.00 | 0.00 | 83 | 1015.1 |
| 20260507004947 | 13 | 165 | 4.8 | 11.3 | 0.00 | 0.00 | 0.00 | 81 | 1015.2 |
| 20260507003447 | 13 | 220 | 3.2 | 8.0 | 0.00 | 0.00 | 0.00 | 83 | 1015.2 |
| 20260507001947 | 13 | 247 | 1.6 | 4.8 | 0.00 | 0.00 | 0.00 | 83 | 1015.1 |
| 20260507000449 | 13 | 250 | 1.6 | 4.8 | 0.00 | 0.00 | 0.00 | 85 | 1015.1 |
| 20260506234929 | 13 | 243 | 0.0 | 3.2 | 0.00 | 0.00 | 0.00 | 85 | 1015.2 |
| 20260506233428 | 12 | 243 | 0.0 | 3.2 | 0.00 | 0.00 | 0.00 | 87 | 1015.1 |
| 20260506231913 | 12 | 243 | 0.0 | 4.8 | 0.00 | 0.00 | 0.00 | 86 | 1015.3 |
| 20260506230410 | 12 | 243 | 0.0 | 4.8 | 0.00 | 0.00 | 0.00 | 86 | 1015.3 |
| 20260506224907 | 12 | 238 | 1.6 | 6.4 | 0.00 | 0.00 | 0.00 | 86 | 1015.3 |
| 20260506223406 | 12 | 292 | 1.6 | 6.4 | 0.00 | 0.00 | 0.00 | 88 | 1015.3 |
| 20260506221904 | 12 | 232 | 3.2 | 6.4 | 0.00 | 0.00 | 0.00 | 87 | 1015.4 |
| 20260506220354 | 12 | 219 | 1.6 | 6.4 | 0.00 | 0.00 | 0.00 | 87 | 1015.4 |
| 20260506214837 | 12 | 227 | 3.2 | 8.0 | 0.00 | 0.00 | 0.00 | 89 | 1015.5 |
| 20260506213338 | 12 | 221 | 3.2 | 11.3 | 0.00 | 0.00 | 0.00 | 88 | 1015.5 |
| 20260506211815 | 12 | 308 | 1.6 | 6.4 | 0.00 | 0.00 | 0.00 | 89 | 1015.5 |
| 20260506210312 | 12 | 234 | 0.0 | 6.4 | 0.00 | 0.00 | 0.00 | 90 | 1015.5 |
| 20260506204812 | 12 | 232 | 1.6 | 6.4 | 0.00 | 0.00 | 0.00 | 88 | 1015.5 |
| 20260506203300 | 12 | 273 | 4.8 | 14.5 | 0.00 | 0.00 | 0.00 | 87 | 1015.4 |
| 20260506201742 | 12 | 201 | 6.4 | 14.5 | 0.00 | 0.00 | 0.00 | 85 | 1015.4 |
| 20260506200229 | 12 | 215 | 3.2 | 11.3 | 0.00 | 0.00 | 0.00 | 87 | 1015.1 |
| 20260506194728 | 12 | 206 | 3.2 | 12.9 | 0.00 | 0.00 | 0.00 | 88 | 1015.2 |
| 20260506193218 | 12 | 95 | 4.8 | 14.5 | 0.00 | 0.00 | 0.00 | 88 | 1015.2 |
| 20260506191653 | 12 | 96 | 6.4 | 22.5 | 0.00 | 0.00 | 0.00 | 88 | 1015.0 |
| 20260506190155 | 12 | 68 | 3.2 | 12.9 | 0.00 | 0.00 | 0.00 | 90 | 1015.0 |
| 20260506184651 | 11 | 127 | 1.6 | 11.3 | 0.00 | 0.00 | 0.00 | 90 | 1015.0 |
| 20260506183149 | 11 | 154 | 4.8 | 17.7 | 0.00 | 0.00 | 0.00 | 90 | 1014.9 |
| 20260506181651 | 11 | 90 | 4.8 | 16.1 | 0.00 | 0.00 | 0.00 | 90 | 1014.9 |
| 20260506180128 | 11 | 170 | 6.4 | 19.3 | 0.00 | 0.00 | 0.00 | 90 | 1014.8 |
| 20260506174628 | 11 | 188 | 4.8 | 12.9 | 0.00 | 0.00 | 0.00 | 90 | 1014.8 |
| 20260506173125 | 11 | 105 | 6.4 | 17.7 | 0.00 | 0.00 | 0.00 | 90 | 1014.8 |
| 20260506171622 | 11 | 202 | 4.8 | 17.7 | 0.00 | 0.00 | 0.00 | 90 | 1014.3 |
| 20260506170121 | 11 | 112 | 4.8 | 17.7 | 0.00 | 0.00 | 0.00 | 90 | 1014.5 |
| 20260506164615 | 11 | 202 | 1.6 | 11.3 | 0.00 | 0.00 | 0.00 | 90 | 1014.5 |
| 20260506163058 | 11 | 157 | 3.2 | 16.1 | 0.00 | 0.00 | 0.00 | 90 | 1014.5 |
| 20260506161545 | 11 | 157 | 6.4 | 17.7 | 0.00 | 0.00 | 0.00 | 90 | 1014.8 |
| 20260506160043 | 11 | 198 | 3.2 | 14.5 | 0.00 | 0.00 | 0.00 | 90 | 1014.4 |
| 20260506154545 | 11 | 171 | 6.4 | 16.1 | 0.00 | 0.00 | 0.00 | 90 | 1014.4 |
| 20260506153041 | 11 | 165 | 6.4 | 17.7 | 0.00 | 0.00 | 0.00 | 90 | 1014.0 |
| 20260506151540 | 11 | 155 | 6.4 | 20.9 | 0.00 | 0.00 | 0.00 | 90 | 1013.9 |
| 20260506150038 | 11 | 190 | 4.8 | 12.9 | 0.00 | 0.00 | 0.00 | 90 | 1014.1 |
| 20260506144531 | 11 | 106 | 3.2 | 14.5 | 0.00 | 0.00 | 0.00 | 90 | 1014.2 |
| 20260506143027 | 11 | 144 | 4.8 | 16.1 | 0.00 | 0.00 | 0.00 | 90 | 1013.9 |
| 20260506141510 | 11 | 86 | 3.2 | 11.3 | 0.00 | 0.00 | 0.00 | 89 | 1013.9 |
| 20260506140000 | 10 | 125 | 3.2 | 11.3 | 0.00 | 0.00 | 0.00 | 88 | 1013.8 |
| 20260506134452 | 10 | 134 | 3.2 | 6.4 | 0.00 | 0.00 | 0.00 | 87 | 1013.7 |
| 20260506132949 | 10 | 114 | 0.0 | 9.7 | 0.00 | 0.00 | 0.00 | 87 | 1013.7 |
| 20260506131451 | 10 | 98 | 0.0 | 1.6 | 0.00 | 0.00 | 0.00 | 87 | 1013.9 |
| 20260506125943 | 10 | 98 | 0.0 | 0.0 | 0.00 | 0.00 | 0.00 | 87 | 1013.7 |
| 20260506124414 | 10 | 98 | 0.0 | 3.2 | 0.00 | 0.00 | 0.00 | 87 | 1013.4 |
| 20260506122914 | 10 | 98 | 0.0 | 4.8 | 0.00 | 0.00 | 0.00 | 87 | 1013.5 |
| 20260506121414 | 10 | 99 | 0.0 | 4.8 | 0.00 | 0.00 | 0.00 | 87 | 1013.3 |
| 20260506115856 | 10 | 99 | 1.6 | 4.8 | 0.00 | 0.00 | 0.00 | 87 | 1013.2 |
| 20260506114351 | 10 | 76 | 0.0 | 0.0 | 0.00 | 0.00 | 0.00 | 87 | 1013.3 |
| 20260506112851 | 10 | 76 | 0.0 | 0.0 | 0.00 | 0.00 | 0.00 | 87 | 1013.1 |
| 20260506111350 | 9 | 76 | 0.0 | 0.0 | 0.00 | 0.00 | 0.00 | 87 | 1012.9 |
| 20260506105838 | 8 | 76 | 0.0 | 0.0 | 0.00 | 0.00 | 0.00 | 88 | 1012.8 |
| 20260506104338 | 8 | 76 | 0.0 | 0.0 | 0.00 | 0.00 | 0.00 | 88 | 1012.5 |
| 20260506102839 | 8 | 76 | 0.0 | 3.2 | 0.00 | 0.00 | 0.00 | 89 | 1012.5 |
| 20260506101338 | 8 | 76 | 0.0 | 3.2 | 0.00 | 0.00 | 0.00 | 89 | 1012.4 |
| 20260506095826 | 8 | 76 | 0.0 | 3.2 | 0.00 | 0.00 | 0.00 | 90 | 1012.3 |
| 20260506094321 | 8 | 76 | 0.0 | 4.8 | 0.00 | 0.00 | 0.00 | 90 | 1012.2 |
| 20260506092820 | 8 | 76 | 1.6 | 6.4 | 0.00 | 0.00 | 0.00 | 90 | 1012.2 |
| 20260506091320 | 8 | 64 | 0.0 | 3.2 | 0.00 | 0.00 | 0.00 | 90 | 1012.1 |
| 20260506085822 | 9 | 64 | 0.0 | 3.2 | 0.00 | 0.00 | 0.00 | 90 | 1012.2 |
| 20260506084317 | 9 | 73 | 0.0 | 6.4 | 0.00 | 0.00 | 0.00 | 90 | 1012.1 |
| 20260506082814 | 9 | 45 | 1.6 | 6.4 | 0.00 | 0.00 | 0.00 | 90 | 1012.0 |
| 20260506081309 | 9 | 86 | 0.0 | 6.4 | 0.00 | 0.00 | 0.00 | 91 | 1011.8 |
| 20260506072807 | 10 | 116 | 1.6 | 6.4 | 0.00 | 0.00 | 0.00 | 91 | 1011.4 |
| 20260506071308 | 10 | 50 | 1.6 | 8.0 | 0.00 | 0.00 | 0.00 | 91 | 1011.3 |
| 20260506061216 | 11 | 275 | 1.6 | 6.4 | 0.00 | 0.00 | 0.00 | 90 | 1011.1 |
| 20260506051147 | 11 | 49 | 4.8 | 14.5 | 0.00 | 0.00 | 0.00 | 90 | 1010.6 |
| 20260506044117 | 12 | 79 | 1.6 | 6.4 | 0.00 | 0.00 | 0.00 | 86 | 1010.2 |
| 20260506042619 | 12 | 88 | 0.0 | 6.4 | 0.00 | 0.00 | 0.00 | 85 | 1010.1 |
| 20260506041105 | 12 | 90 | 0.0 | 0.0 | 0.00 | 0.00 | 0.00 | 84 | 1009.9 |
| 20260506035605 | 13 | 90 | 0.0 | 3.2 | 0.00 | 0.00 | 0.00 | 83 | 1009.8 |
| 20260506034101 | 13 | 90 | 0.0 | 6.4 | 0.00 | 0.00 | 0.00 | 84 | 1009.8 |
| 20260506032559 | 13 | 91 | 3.2 | 6.4 | 0.00 | 0.00 | 0.00 | 83 | 1009.7 |
| 20260506031101 | 13 | 52 | 1.6 | 8.0 | 0.00 | 0.00 | 0.00 | 82 | 1009.7 |
| 20260506025531 | 14 | 345 | 1.6 | 9.7 | 0.00 | 0.00 | 0.00 | 81 | 1009.7 |
| 20260506024010 | 15 | 50 | 3.2 | 11.3 | 0.00 | 0.00 | 0.00 | 80 | 1009.6 |